createdAt,value
2019-05-12T00:05:11.000Z,1018.604
2019-05-12T00:15:12.000Z,1018.713
2019-05-12T00:35:11.000Z,1018.879
2019-05-12T00:45:11.000Z,1019.064
2019-05-12T00:55:12.000Z,1019.289
2019-05-12T01:05:13.000Z,1019.363
2019-05-12T01:15:11.000Z,1019.415
2019-05-12T01:25:11.000Z,1019.501
2019-05-12T01:35:11.000Z,1019.604
2019-05-12T01:45:11.000Z,1019.741
2019-05-12T01:55:11.000Z,1019.901
2019-05-12T02:05:11.000Z,1020.165
2019-05-12T02:25:11.000Z,1020.412
2019-05-12T02:35:11.000Z,1020.432
2019-05-12T02:45:11.000Z,1020.59
2019-05-12T02:55:11.000Z,1020.849
2019-05-12T03:05:11.000Z,1020.907
2019-05-12T03:25:11.000Z,1021.187
2019-05-12T03:35:11.000Z,1021.298
2019-05-12T03:45:11.000Z,1021.414
2019-05-12T03:55:11.000Z,1021.565
2019-05-12T04:05:13.000Z,1021.632
2019-05-12T04:15:12.000Z,1021.841
2019-05-12T04:25:11.000Z,1021.897
2019-05-12T04:35:15.000Z,1022.061
2019-05-12T04:45:15.000Z,1022.222
2019-05-12T04:55:11.000Z,1022.444
2019-05-12T05:05:11.000Z,1022.57
2019-05-12T05:15:11.000Z,1022.884
2019-05-12T05:25:11.000Z,1023.092
2019-05-12T05:35:11.000Z,1023.221
2019-05-12T05:45:11.000Z,1023.356
2019-05-12T05:55:11.000Z,1023.43
2019-05-12T06:05:11.000Z,1023.484
2019-05-12T06:15:11.000Z,1023.552
2019-05-12T06:25:11.000Z,1023.794
2019-05-12T06:35:11.000Z,1023.834
2019-05-12T06:45:11.000Z,1024.019
2019-05-12T06:55:11.000Z,1024.161
2019-05-12T07:05:11.000Z,1024.262
2019-05-12T07:15:12.000Z,1024.236
2019-05-12T07:25:11.000Z,1024.444
2019-05-12T07:35:11.000Z,1024.374
2019-05-12T07:45:12.000Z,1024.401
2019-05-12T07:55:12.000Z,1024.324
2019-05-12T08:05:15.000Z,1024.456
2019-05-12T08:25:12.000Z,1024.6
2019-05-12T08:35:12.000Z,1024.653
2019-05-12T08:45:12.000Z,1024.725
2019-05-12T08:55:14.000Z,1024.719
2019-05-12T09:05:12.000Z,1024.886
2019-05-12T09:15:17.000Z,1024.982
2019-05-12T09:25:12.000Z,1024.938
2019-05-12T09:35:12.000Z,1025.025
2019-05-12T09:45:12.000Z,1025.022
2019-05-12T09:55:12.000Z,1025.071
2019-05-12T10:05:13.000Z,1025.014
2019-05-12T10:15:12.000Z,1025.017
2019-05-12T10:25:12.000Z,1025.082
2019-05-12T10:35:12.000Z,1025.233
2019-05-12T10:45:12.000Z,1025.207
2019-05-12T10:55:12.000Z,1025.259
2019-05-12T11:05:12.000Z,1025.197
2019-05-12T11:15:12.000Z,1025.276
2019-05-12T11:35:12.000Z,1025.275
2019-05-12T11:45:12.000Z,1025.241
2019-05-12T11:55:13.000Z,1025.312
2019-05-12T12:05:12.000Z,1025.335
2019-05-12T12:15:14.000Z,1025.343
2019-05-12T12:25:12.000Z,1025.496
2019-05-12T12:35:12.000Z,1025.612
2019-05-12T12:45:12.000Z,1025.724
2019-05-12T12:55:15.000Z,1025.657
2019-05-12T13:05:13.000Z,1025.655
2019-05-12T13:15:12.000Z,1025.688
2019-05-12T13:25:12.000Z,1025.72
2019-05-12T13:45:12.000Z,1025.936
2019-05-12T13:55:14.000Z,1025.99
2019-05-12T14:05:12.000Z,1026.112
2019-05-12T14:15:14.000Z,1026.172
2019-05-12T14:25:12.000Z,1026.194
2019-05-12T14:35:12.000Z,1026.152
2019-05-12T14:45:12.000Z,1026.007
2019-05-12T15:05:12.000Z,1026.138
2019-05-12T15:15:12.000Z,1026.131
2019-05-12T15:25:12.000Z,1026.319
2019-05-12T15:35:12.000Z,1026.512
2019-05-12T15:55:13.000Z,1026.579
2019-05-12T16:05:13.000Z,1026.54
2019-05-12T16:15:14.000Z,1026.563
2019-05-12T16:25:13.000Z,1026.577
2019-05-12T16:35:13.000Z,1026.615
2019-05-12T16:45:13.000Z,1026.674
2019-05-12T16:55:14.000Z,1026.752
2019-05-12T17:05:13.000Z,1026.783
2019-05-12T17:15:16.000Z,1026.814
2019-05-12T17:25:13.000Z,1026.875
2019-05-12T17:35:13.000Z,1027.041
2019-05-12T17:45:16.000Z,1027.179
2019-05-12T17:55:14.000Z,1027.316
2019-05-12T18:05:13.000Z,1027.45
2019-05-12T18:25:16.000Z,1027.721
2019-05-12T18:35:13.000Z,1027.889
2019-05-12T18:45:13.000Z,1027.994
2019-05-12T18:55:13.000Z,1028.045
2019-05-12T19:05:14.000Z,1028.116
2019-05-12T19:15:13.000Z,1028.303
2019-05-12T19:25:14.000Z,1028.441
2019-05-12T19:35:13.000Z,1028.706
2019-05-12T19:45:13.000Z,1028.807
2019-05-12T19:55:13.000Z,1028.918
2019-05-12T20:15:13.000Z,1029.069
2019-05-12T20:25:16.000Z,1029.117
2019-05-12T20:35:13.000Z,1029.147
2019-05-12T20:45:13.000Z,1029.324
2019-05-12T20:55:13.000Z,1029.459
2019-05-12T21:15:13.000Z,1029.662
2019-05-12T21:25:13.000Z,1029.732
2019-05-12T21:35:13.000Z,1029.803
2019-05-12T21:45:13.000Z,1029.81
2019-05-12T21:55:13.000Z,1029.9
2019-05-12T22:05:13.000Z,1030.025
2019-05-12T22:15:13.000Z,1030.14
2019-05-12T22:25:15.000Z,1030.234
2019-05-12T22:35:13.000Z,1030.249
2019-05-12T22:45:13.000Z,1030.274
2019-05-12T22:55:13.000Z,1030.338
2019-05-12T23:05:13.000Z,1030.399
2019-05-12T23:15:14.000Z,1030.463
2019-05-12T23:25:14.000Z,1030.529
2019-05-12T23:35:13.000Z,1030.531
2019-05-12T23:45:15.000Z,1030.591
2019-05-12T23:55:13.000Z,1030.54
